createdAt,value
2023-04-07T00:02:13.533Z,65.80
2023-04-07T00:04:40.819Z,65.28
2023-04-07T00:07:08.277Z,64.07
2023-04-07T00:09:35.550Z,61.20
2023-04-07T00:12:03.000Z,65.90
2023-04-07T00:14:30.253Z,68.28
2023-04-07T00:16:57.479Z,73.97
2023-04-07T00:19:24.703Z,74.03
2023-04-07T00:21:51.814Z,73.63
2023-04-07T00:24:27.433Z,79.93
2023-04-07T00:27:01.372Z,77.15
2023-04-07T00:29:29.840Z,79.07
2023-04-07T00:31:56.971Z,80.22
2023-04-07T00:34:24.027Z,77.53
2023-04-07T00:36:52.566Z,74.00
2023-04-07T00:40:06.277Z,72.05
2023-04-07T00:42:34.145Z,76.20
2023-04-07T00:45:01.603Z,76.38
2023-04-07T00:47:28.722Z,79.22
2023-04-07T00:49:56.275Z,75.38
2023-04-07T00:52:30.450Z,74.75
2023-04-07T00:54:57.974Z,70.70
2023-04-07T00:57:25.655Z,63.63
2023-04-07T00:59:52.932Z,66.90
2023-04-07T01:02:22.409Z,62.55
2023-04-07T01:04:56.511Z,62.25
2023-04-07T01:07:46.185Z,62.05
2023-04-07T01:10:19.886Z,60.15
2023-04-07T01:13:09.266Z,63.50
2023-04-07T01:15:36.762Z,69.45
2023-04-07T01:18:14.144Z,70.63
2023-04-07T01:24:09.748Z,62.67
2023-04-07T01:26:46.963Z,64.38
2023-04-07T01:29:36.382Z,69.03
2023-04-07T01:32:04.607Z,69.00
2023-04-07T01:34:33.054Z,68.03
2023-04-07T01:37:01.728Z,69.82
2023-04-07T01:39:28.924Z,70.70
2023-04-07T01:41:56.373Z,69.00
2023-04-07T01:44:23.521Z,65.75
2023-04-07T01:46:53.388Z,63.78
2023-04-07T01:49:20.524Z,59.50
2023-04-07T01:51:50.716Z,59.60
2023-04-07T01:54:18.564Z,64.65
2023-04-07T01:56:46.245Z,52.10
2023-04-07T01:59:13.665Z,48.55
2023-04-07T02:01:41.440Z,49.00
2023-04-07T02:04:30.221Z,45.58
2023-04-07T02:07:01.317Z,39.40
2023-04-07T02:09:28.667Z,41.30
2023-04-07T02:11:56.455Z,32.17
2023-04-07T02:14:24.554Z,29.50
2023-04-07T02:16:51.887Z,29.85
2023-04-07T02:19:19.425Z,25.95
2023-04-07T02:21:47.232Z,23.00
2023-04-07T02:24:14.381Z,21.65
2023-04-07T02:26:42.822Z,19.80
2023-04-07T02:29:09.834Z,20.23
2023-04-07T02:31:37.079Z,19.65
2023-04-07T02:34:04.147Z,21.45
2023-04-07T02:36:31.565Z,22.73
2023-04-07T02:38:59.004Z,25.10
2023-04-07T02:41:26.548Z,26.20
2023-04-07T02:43:53.960Z,25.05
2023-04-07T02:46:21.228Z,24.40
2023-04-07T02:48:48.519Z,23.55
2023-04-07T02:51:18.436Z,23.45
2023-04-07T02:53:45.507Z,22.45
2023-04-07T02:56:12.635Z,22.13
2023-04-07T02:58:39.862Z,20.20
2023-04-07T03:01:07.057Z,22.00
2023-04-07T03:03:34.404Z,19.40
2023-04-07T03:06:01.540Z,20.80
2023-04-07T03:08:31.707Z,23.83
2023-04-07T03:10:59.863Z,37.10
2023-04-07T03:13:28.198Z,40.13
2023-04-07T03:15:55.315Z,37.22
2023-04-07T03:18:22.501Z,37.90
2023-04-07T03:20:49.679Z,38.38
2023-04-07T03:23:16.938Z,29.45
2023-04-07T03:25:47.567Z,31.33
2023-04-07T03:28:16.228Z,34.28
2023-04-07T03:30:43.415Z,25.42
2023-04-07T03:33:11.343Z,23.20
2023-04-07T03:35:38.847Z,22.88
2023-04-07T03:38:06.058Z,23.90
2023-04-07T03:40:33.817Z,24.02
2023-04-07T03:43:01.527Z,24.40
2023-04-07T03:45:28.749Z,24.92
2023-04-07T03:47:56.440Z,22.40
2023-04-07T03:50:23.601Z,24.17
2023-04-07T03:52:50.697Z,22.70
2023-04-07T03:55:17.913Z,21.58
2023-04-07T03:57:44.948Z,22.83
2023-04-07T04:00:18.243Z,26.92
2023-04-07T04:02:45.538Z,28.08
2023-04-07T04:05:12.802Z,25.60
2023-04-07T04:07:39.949Z,22.35
2023-04-07T04:10:07.866Z,19.13
2023-04-07T04:12:35.247Z,18.70
2023-04-07T04:15:02.400Z,20.95
2023-04-07T04:17:29.484Z,22.20
2023-04-07T04:19:56.559Z,22.83
2023-04-07T04:22:25.817Z,20.77
2023-04-07T04:24:52.938Z,19.33
2023-04-07T04:27:19.978Z,19.80
2023-04-07T04:29:47.213Z,20.92
2023-04-07T04:32:14.372Z,19.42
2023-04-07T04:34:44.528Z,18.35
2023-04-07T04:37:11.924Z,18.73
2023-04-07T04:39:39.168Z,19.35
2023-04-07T04:42:06.660Z,16.38
2023-04-07T04:44:33.876Z,17.50
2023-04-07T04:47:01.184Z,17.75
2023-04-07T04:49:28.380Z,17.63
2023-04-07T04:51:55.551Z,16.77
2023-04-07T04:54:22.709Z,18.63
2023-04-07T04:56:49.841Z,18.75
2023-04-07T04:59:17.699Z,17.98
2023-04-07T05:01:45.019Z,18.98
2023-04-07T05:04:12.577Z,19.83
2023-04-07T05:06:39.938Z,19.73
2023-04-07T05:09:07.170Z,22.48
2023-04-07T05:11:34.289Z,24.42
2023-04-07T05:14:01.533Z,24.55
2023-04-07T05:16:28.646Z,24.17
2023-04-07T05:18:56.059Z,22.77
2023-04-07T05:21:23.892Z,23.38
2023-04-07T05:23:51.417Z,25.27
2023-04-07T05:26:18.865Z,20.85
2023-04-07T05:28:46.116Z,18.67
2023-04-07T05:31:13.326Z,19.15
2023-04-07T05:33:40.884Z,18.35
2023-04-07T05:36:08.283Z,16.42
2023-04-07T05:38:35.820Z,15.43
2023-04-07T05:41:03.088Z,16.25
2023-04-07T05:43:30.400Z,15.13
2023-04-07T05:45:58.077Z,13.85
2023-04-07T05:48:25.751Z,14.57
2023-04-07T05:50:52.903Z,14.15
2023-04-07T05:53:21.608Z,14.27
2023-04-07T05:55:48.733Z,13.30
2023-04-07T05:58:16.173Z,15.32
2023-04-07T06:00:43.387Z,15.43
2023-04-07T06:03:10.681Z,14.73
2023-04-07T06:05:38.908Z,14.23
2023-04-07T06:08:08.428Z,13.50
2023-04-07T06:10:41.246Z,13.50
2023-04-07T06:13:09.429Z,14.73
2023-04-07T06:15:36.675Z,14.88
2023-04-07T06:18:04.756Z,14.73
2023-04-07T06:20:32.011Z,13.90
2023-04-07T06:23:02.201Z,14.57
2023-04-07T06:28:34.838Z,15.20
2023-04-07T06:31:09.019Z,14.63
2023-04-07T06:33:36.394Z,16.40
2023-04-07T06:36:19.241Z,17.05
2023-04-07T06:38:56.603Z,17.65
2023-04-07T06:41:23.874Z,18.13
2023-04-07T06:44:09.588Z,12.68
2023-04-07T06:49:47.939Z,10.52
2023-04-07T06:55:07.776Z,10.88
2023-04-07T06:57:42.891Z,10.48
2023-04-07T07:00:36.314Z,10.43
2023-04-07T07:03:04.212Z,11.15
2023-04-07T07:05:50.428Z,10.65
2023-04-07T07:08:26.091Z,10.20
2023-04-07T07:11:33.521Z,12.05
2023-04-07T07:14:18.198Z,10.43
2023-04-07T07:20:38.567Z,12.00
2023-04-07T07:53:01.463Z,11.50
2023-04-07T07:55:32.208Z,10.93
2023-04-07T08:04:11.645Z,10.23
2023-04-07T08:07:02.630Z,12.38
2023-04-07T08:12:39.392Z,10.35
2023-04-07T08:15:27.634Z,17.88
2023-04-07T08:51:32.948Z,10.00
2023-04-07T08:54:11.195Z,10.98
2023-04-07T08:56:44.471Z,10.13
2023-04-07T08:59:13.479Z,10.35
2023-04-07T09:01:41.012Z,9.35
2023-04-07T09:04:09.153Z,10.50
2023-04-07T09:06:36.819Z,10.48
2023-04-07T09:09:06.603Z,11.30
2023-04-07T09:11:38.589Z,10.30
2023-04-07T09:14:08.460Z,11.57
2023-04-07T09:16:35.779Z,9.85
2023-04-07T09:19:03.255Z,10.65
2023-04-07T09:21:50.023Z,10.90
2023-04-07T09:24:27.786Z,10.50
2023-04-07T09:27:12.730Z,11.25
2023-04-07T09:29:42.706Z,11.70
2023-04-07T09:32:27.642Z,10.68
2023-04-07T09:34:59.309Z,10.27
2023-04-07T09:37:26.779Z,11.35
2023-04-07T09:39:54.313Z,10.85
2023-04-07T09:42:21.819Z,9.73
2023-04-07T09:44:49.092Z,9.55
2023-04-07T09:47:17.485Z,9.63
2023-04-07T09:49:56.469Z,10.00
2023-04-07T09:52:26.679Z,11.40
2023-04-07T09:54:53.913Z,10.15
2023-04-07T09:57:21.045Z,9.10
2023-04-07T09:59:48.877Z,9.70
2023-04-07T10:02:16.440Z,11.13
2023-04-07T10:04:44.155Z,10.70
2023-04-07T10:07:11.540Z,11.10
2023-04-07T10:09:41.869Z,9.65
2023-04-07T10:12:10.720Z,10.10
2023-04-07T10:14:40.153Z,10.73
2023-04-07T10:17:07.771Z,10.13
2023-04-07T10:19:35.195Z,12.43
2023-04-07T10:22:03.814Z,10.45
2023-04-07T10:24:39.360Z,10.27
2023-04-07T10:27:09.001Z,9.68
2023-04-07T10:29:40.219Z,9.18
2023-04-07T10:32:15.239Z,9.20
2023-04-07T10:35:10.779Z,9.48
2023-04-07T10:37:44.765Z,10.95
2023-04-07T10:40:27.290Z,11.77
2023-04-07T10:42:54.732Z,13.10
2023-04-07T10:45:54.691Z,12.65
2023-04-07T10:48:23.162Z,11.90
2023-04-07T10:51:05.765Z,10.43
2023-04-07T10:53:32.971Z,11.77
2023-04-07T10:56:03.334Z,11.50
2023-04-07T10:58:31.417Z,10.95
2023-04-07T11:01:08.151Z,10.35
2023-04-07T11:03:37.204Z,10.48
2023-04-07T11:06:08.726Z,10.38
2023-04-07T11:08:40.004Z,11.25
2023-04-07T11:11:09.655Z,12.68
2023-04-07T11:13:43.529Z,13.10
2023-04-07T11:16:10.840Z,11.43
2023-04-07T11:18:38.420Z,11.85
2023-04-07T11:21:08.615Z,14.60
2023-04-07T11:23:46.038Z,12.30
2023-04-07T11:26:14.436Z,12.60
2023-04-07T11:28:55.091Z,12.20
2023-04-07T11:31:26.594Z,12.07
2023-04-07T11:33:59.181Z,10.35
2023-04-07T11:36:33.382Z,11.73
2023-04-07T11:39:01.139Z,11.00
2023-04-07T11:41:30.824Z,10.70
2023-04-07T11:44:09.115Z,10.43
2023-04-07T11:46:37.056Z,11.57
2023-04-07T11:49:14.010Z,13.43
2023-04-07T11:51:43.050Z,12.75
2023-04-07T11:54:11.283Z,11.80
2023-04-07T11:56:45.983Z,10.45
2023-04-07T11:59:23.560Z,10.48
2023-04-07T12:01:56.140Z,11.70
2023-04-07T12:04:24.608Z,11.25
2023-04-07T12:06:52.878Z,11.48
2023-04-07T12:09:30.507Z,12.27
2023-04-07T12:11:58.010Z,11.82
2023-04-07T12:14:26.061Z,11.45
2023-04-07T12:16:56.412Z,11.90
2023-04-07T12:19:24.648Z,11.25
2023-04-07T12:21:51.810Z,11.27
2023-04-07T12:24:19.095Z,11.98
2023-04-07T12:26:47.209Z,12.05
2023-04-07T12:29:16.820Z,12.60
2023-04-07T12:31:44.035Z,13.85
2023-04-07T12:34:11.380Z,14.25
2023-04-07T12:36:38.791Z,17.15
2023-04-07T12:39:05.933Z,14.45
2023-04-07T12:41:33.854Z,17.63
2023-04-07T12:44:01.150Z,13.95
2023-04-07T12:46:28.422Z,12.73
2023-04-07T12:48:57.196Z,12.32
2023-04-07T12:51:26.504Z,11.18
2023-04-07T12:53:59.133Z,11.95
2023-04-07T12:56:26.237Z,11.88
2023-04-07T12:58:54.739Z,12.93
2023-04-07T13:01:22.206Z,12.52
2023-04-07T13:03:49.730Z,11.55
2023-04-07T13:06:17.734Z,12.23
2023-04-07T13:08:44.876Z,11.88
2023-04-07T13:11:12.257Z,12.88
2023-04-07T13:13:39.434Z,11.35
2023-04-07T13:16:06.603Z,11.88
2023-04-07T13:18:33.701Z,13.30
2023-04-07T13:26:00.815Z,12.25
2023-04-07T13:28:28.077Z,11.75
2023-04-07T13:30:55.677Z,11.35
2023-04-07T13:33:25.175Z,12.38
2023-04-07T13:35:52.394Z,13.55
2023-04-07T13:38:21.525Z,12.93
2023-04-07T13:40:56.592Z,10.55
2023-04-07T13:43:24.734Z,10.18
2023-04-07T13:45:52.288Z,11.07
2023-04-07T13:48:19.706Z,9.73
2023-04-07T13:50:47.007Z,9.20
2023-04-07T13:53:15.503Z,10.38
2023-04-07T13:55:44.451Z,9.98
2023-04-07T13:58:14.795Z,10.15
2023-04-07T14:00:42.737Z,10.20
2023-04-07T14:03:10.330Z,9.38
2023-04-07T14:05:38.170Z,9.70
2023-04-07T14:08:05.354Z,10.50
2023-04-07T14:10:33.795Z,10.57
2023-04-07T14:13:01.709Z,9.95
2023-04-07T14:15:28.934Z,8.95
2023-04-07T14:17:56.160Z,9.23
2023-04-07T14:20:24.208Z,9.95
2023-04-07T14:22:52.599Z,9.68
2023-04-07T14:25:19.715Z,10.30
2023-04-07T14:27:47.305Z,9.20
2023-04-07T14:30:14.573Z,12.38
2023-04-07T14:32:41.747Z,13.05
2023-04-07T14:35:10.028Z,12.13
2023-04-07T14:37:37.669Z,10.15
2023-04-07T14:40:05.662Z,10.43
2023-04-07T14:42:33.864Z,11.10
2023-04-07T14:45:02.093Z,11.90
2023-04-07T14:47:30.744Z,10.23
2023-04-07T14:49:58.293Z,8.75
2023-04-07T14:52:26.198Z,8.32
2023-04-07T14:54:53.377Z,7.35
2023-04-07T14:57:20.938Z,8.55
2023-04-07T14:59:48.315Z,9.77
2023-04-07T15:02:15.687Z,8.38
2023-04-07T15:04:43.918Z,6.32
2023-04-07T15:07:15.744Z,5.68
2023-04-07T15:09:46.148Z,6.32
2023-04-07T15:12:13.404Z,6.38
2023-04-07T15:14:41.172Z,7.70
2023-04-07T15:17:08.654Z,7.60
2023-04-07T15:19:36.106Z,6.32
2023-04-07T15:22:03.464Z,7.47
2023-04-07T15:24:30.797Z,8.77
2023-04-07T15:26:58.506Z,7.70
2023-04-07T15:29:26.675Z,8.55
2023-04-07T15:31:54.094Z,8.40
2023-04-07T15:34:21.387Z,8.25
2023-04-07T15:36:50.970Z,8.48
2023-04-07T15:39:20.015Z,8.20
2023-04-07T15:41:47.442Z,8.65
2023-04-07T15:44:18.883Z,8.40
2023-04-07T15:46:46.368Z,11.95
2023-04-07T15:49:13.999Z,8.98
2023-04-07T15:51:41.221Z,9.85
2023-04-07T15:54:10.074Z,9.55
2023-04-07T15:56:37.333Z,12.90
2023-04-07T15:59:04.511Z,13.20
2023-04-07T16:01:32.222Z,12.55
2023-04-07T16:03:59.805Z,10.70
2023-04-07T16:06:27.616Z,11.15
2023-04-07T16:08:56.513Z,11.63
2023-04-07T16:11:23.735Z,11.20
2023-04-07T16:13:51.822Z,10.82
2023-04-07T16:16:23.972Z,10.88
2023-04-07T16:18:52.407Z,11.70
2023-04-07T16:21:19.720Z,10.52
2023-04-07T16:23:50.718Z,9.32
2023-04-07T16:26:17.996Z,12.32
2023-04-07T16:28:45.450Z,10.55
2023-04-07T16:31:12.738Z,10.77
2023-04-07T16:33:40.040Z,11.18
2023-04-07T16:36:07.692Z,12.63
2023-04-07T16:38:34.929Z,11.73
2023-04-07T16:41:04.763Z,10.95
2023-04-07T16:43:32.283Z,9.75
2023-04-07T16:46:00.644Z,9.65
2023-04-07T16:48:27.869Z,8.38
2023-04-07T16:50:57.405Z,9.90
2023-04-07T16:53:25.106Z,9.82
2023-04-07T16:55:52.553Z,10.00
2023-04-07T16:58:19.901Z,11.85
2023-04-07T17:00:47.150Z,12.40
2023-04-07T17:03:15.866Z,12.00
2023-04-07T17:05:46.878Z,10.07
2023-04-07T17:08:14.082Z,17.75
2023-04-07T17:10:41.666Z,15.23
2023-04-07T17:13:08.959Z,12.02
2023-04-07T17:15:38.253Z,16.00
2023-04-07T17:18:05.721Z,18.38
2023-04-07T17:20:33.561Z,20.60
2023-04-07T17:23:00.851Z,15.82
2023-04-07T17:25:27.878Z,14.45
2023-04-07T17:27:55.427Z,15.00
2023-04-07T17:30:22.827Z,17.35
2023-04-07T17:32:50.975Z,20.55
2023-04-07T17:35:18.636Z,22.92
2023-04-07T17:37:46.271Z,24.25
2023-04-07T17:40:13.533Z,28.80
2023-04-07T17:42:41.585Z,27.60
2023-04-07T17:45:09.149Z,24.48
2023-04-07T17:47:36.393Z,23.40
2023-04-07T17:50:04.381Z,25.42
2023-04-07T17:52:32.042Z,23.23
2023-04-07T17:54:59.622Z,23.02
2023-04-07T17:57:26.715Z,20.45
2023-04-07T17:59:54.070Z,20.10
2023-04-07T18:02:22.104Z,27.65
2023-04-07T18:04:49.668Z,29.88
2023-04-07T18:07:18.010Z,30.63
2023-04-07T18:09:45.397Z,26.85
2023-04-07T18:12:12.561Z,24.38
2023-04-07T18:14:39.793Z,22.17
2023-04-07T18:17:06.946Z,20.20
2023-04-07T18:19:34.275Z,20.20
2023-04-07T18:22:02.117Z,19.15
2023-04-07T18:24:29.544Z,23.20
2023-04-07T18:26:57.101Z,26.70
2023-04-07T18:29:24.315Z,27.35
2023-04-07T18:31:51.677Z,32.13
2023-04-07T18:34:18.979Z,30.13
2023-04-07T18:36:49.123Z,28.10
2023-04-07T18:39:16.188Z,28.55
2023-04-07T18:41:46.806Z,32.33
2023-04-07T18:44:14.291Z,41.33
2023-04-07T18:46:41.791Z,39.70
2023-04-07T18:49:10.389Z,38.50
2023-04-07T18:51:41.205Z,42.58
2023-04-07T18:54:08.514Z,41.92
2023-04-07T18:56:38.018Z,39.85
2023-04-07T18:59:05.135Z,43.28
2023-04-07T19:01:32.535Z,42.10
2023-04-07T19:04:01.962Z,43.75
2023-04-07T19:06:30.627Z,46.00
2023-04-07T19:08:58.383Z,53.10
2023-04-07T19:11:25.782Z,58.30
2023-04-07T19:13:53.597Z,64.55
2023-04-07T19:16:25.133Z,65.22
2023-04-07T19:18:52.663Z,74.93
2023-04-07T19:21:20.124Z,57.50
2023-04-07T19:23:47.969Z,49.72
2023-04-07T19:26:15.555Z,43.38
2023-04-07T19:28:42.765Z,43.17
2023-04-07T19:31:10.918Z,49.40
2023-04-07T19:33:38.165Z,66.57
2023-04-07T19:36:05.340Z,62.00
2023-04-07T19:38:32.694Z,58.97
2023-04-07T19:40:59.773Z,52.42
2023-04-07T19:43:26.863Z,49.38
2023-04-07T19:45:54.464Z,51.22
2023-04-07T19:48:21.575Z,56.53
2023-04-07T19:50:49.892Z,60.78
2023-04-07T19:53:18.078Z,59.60
2023-04-07T19:55:49.254Z,59.28
2023-04-07T19:58:22.961Z,58.42
2023-04-07T20:00:51.945Z,57.53
2023-04-07T20:03:20.117Z,72.47
2023-04-07T20:05:47.956Z,62.28
2023-04-07T20:08:15.123Z,67.28
2023-04-07T20:10:42.480Z,70.38
2023-04-07T20:13:09.815Z,66.05
2023-04-07T20:15:37.394Z,60.50
2023-04-07T20:18:04.611Z,69.07
2023-04-07T20:20:31.776Z,68.60
2023-04-07T20:22:58.900Z,83.38
2023-04-07T20:25:26.094Z,94.32
2023-04-07T20:27:53.207Z,81.72
2023-04-07T20:30:21.007Z,74.68
2023-04-07T20:32:48.248Z,78.75
2023-04-07T20:35:16.072Z,100.13
2023-04-07T20:37:47.634Z,101.00
2023-04-07T20:40:14.758Z,83.50
2023-04-07T20:42:41.882Z,106.43
2023-04-07T20:45:09.790Z,99.65
2023-04-07T20:47:37.075Z,95.70
2023-04-07T20:50:04.975Z,83.25
2023-04-07T20:52:32.360Z,81.57
2023-04-07T20:55:01.728Z,85.60
2023-04-07T20:57:30.588Z,87.13
2023-04-07T20:59:57.728Z,91.35
2023-04-07T21:02:25.245Z,95.82
2023-04-07T21:04:52.672Z,101.38
2023-04-07T21:07:19.956Z,102.72
2023-04-07T21:09:47.078Z,114.47
2023-04-07T21:12:14.459Z,119.10
2023-04-07T21:14:41.672Z,113.65
2023-04-07T21:17:09.118Z,90.22
2023-04-07T21:19:36.828Z,88.07
2023-04-07T21:22:04.977Z,85.05
2023-04-07T21:24:32.242Z,74.53
2023-04-07T21:26:59.522Z,79.03
2023-04-07T21:29:32.200Z,92.88
2023-04-07T21:32:00.039Z,80.20
2023-04-07T21:34:27.441Z,72.85
2023-04-07T21:36:54.902Z,70.13
2023-04-07T21:39:25.129Z,72.70
2023-04-07T21:41:52.992Z,67.95
2023-04-07T21:44:21.664Z,63.33
2023-04-07T21:46:49.074Z,66.22
2023-04-07T21:49:18.201Z,72.65
2023-04-07T21:51:47.631Z,70.40
2023-04-07T21:54:14.953Z,57.75
2023-04-07T21:56:42.263Z,54.60
2023-04-07T21:59:09.581Z,53.78
2023-04-07T22:01:36.765Z,58.17
2023-04-07T22:04:04.361Z,65.35
2023-04-07T22:06:31.607Z,63.28
2023-04-07T22:09:01.551Z,63.35
2023-04-07T22:11:30.154Z,63.60
2023-04-07T22:13:57.231Z,66.30
2023-04-07T22:16:24.409Z,71.22
2023-04-07T22:18:51.957Z,67.15
2023-04-07T22:21:19.328Z,66.00
2023-04-07T22:23:46.713Z,68.18
2023-04-07T22:26:14.310Z,70.05
2023-04-07T22:28:41.974Z,74.18
2023-04-07T22:31:09.479Z,74.68
2023-04-07T22:33:36.695Z,71.82
2023-04-07T22:36:04.338Z,77.72
2023-04-07T22:38:34.242Z,84.47
2023-04-07T22:41:01.808Z,99.00
2023-04-07T22:43:29.042Z,96.00
2023-04-07T22:45:56.524Z,93.53
2023-04-07T22:48:23.536Z,96.13
2023-04-07T22:50:50.732Z,94.55
2023-04-07T22:53:17.867Z,93.85
2023-04-07T22:55:45.045Z,94.20
2023-04-07T22:58:12.090Z,87.63
2023-04-07T23:00:40.011Z,83.18
2023-04-07T23:03:08.174Z,79.97
2023-04-07T23:05:36.303Z,84.15
2023-04-07T23:08:04.143Z,86.97
2023-04-07T23:10:32.401Z,89.75
2023-04-07T23:12:59.867Z,95.10
2023-04-07T23:15:27.670Z,93.05
2023-04-07T23:17:55.563Z,82.88
2023-04-07T23:20:22.759Z,77.85
2023-04-07T23:22:52.390Z,77.90
2023-04-07T23:25:19.645Z,76.93
2023-04-07T23:27:47.483Z,74.55
2023-04-07T23:30:14.660Z,75.45
2023-04-07T23:32:41.814Z,73.88
2023-04-07T23:35:09.444Z,69.32
2023-04-07T23:37:36.911Z,67.53
2023-04-07T23:40:04.652Z,67.68
2023-04-07T23:42:31.938Z,65.80
2023-04-07T23:44:59.032Z,61.20
2023-04-07T23:47:26.303Z,60.15
2023-04-07T23:49:53.399Z,60.15
2023-04-07T23:52:22.041Z,55.08
2023-04-07T23:54:49.251Z,50.75
2023-04-07T23:57:17.632Z,49.88
2023-04-07T23:59:44.800Z,46.55
